createdAt,value
2023-07-09T00:00:08.692Z,100212.75
2023-07-09T00:00:43.288Z,100219.06
2023-07-09T00:01:14.853Z,100220.16
2023-07-09T00:01:48.773Z,100225.66
2023-07-09T00:02:20.481Z,100219.56
2023-07-09T00:02:57.066Z,100216.22
2023-07-09T00:03:28.761Z,100220.06
2023-07-09T00:04:02.171Z,100216.00
2023-07-09T00:04:33.825Z,100218.84
2023-07-09T00:05:05.307Z,100219.47
2023-07-09T00:05:36.847Z,100220.25
2023-07-09T00:06:08.328Z,100214.38
2023-07-09T00:06:40.170Z,100223.41
2023-07-09T00:07:11.812Z,100218.75
2023-07-09T00:07:43.375Z,100223.41
2023-07-09T00:08:14.901Z,100214.69
2023-07-09T00:08:48.873Z,100215.19
2023-07-09T00:09:20.436Z,100214.38
2023-07-09T00:09:54.776Z,100223.09
2023-07-09T00:10:27.569Z,100219.06
2023-07-09T00:10:59.102Z,100211.94
2023-07-09T00:11:30.745Z,100217.94
2023-07-09T00:12:02.350Z,100221.78
2023-07-09T00:12:33.898Z,100219.06
2023-07-09T00:13:05.359Z,100210.31
2023-07-09T00:13:40.060Z,100216.31
2023-07-09T00:14:11.629Z,100216.09
2023-07-09T00:14:43.540Z,100219.66
2023-07-09T00:15:17.868Z,100223.22
2023-07-09T00:15:49.441Z,100214.19
2023-07-09T00:16:21.107Z,100216.09
2023-07-09T00:16:52.778Z,100212.25
2023-07-09T00:17:30.242Z,100222.09
2023-07-09T00:18:01.950Z,100216.09
2023-07-09T00:18:33.500Z,100223.50
2023-07-09T00:19:05.062Z,100226.75
2023-07-09T00:19:36.695Z,100218.03
2023-07-09T00:20:14.012Z,100222.19
2023-07-09T00:20:45.603Z,100216.91
2023-07-09T00:21:17.164Z,100220.78
2023-07-09T00:21:48.817Z,100224.13
2023-07-09T00:22:20.320Z,100222.91
2023-07-09T00:22:51.925Z,100225.94
2023-07-09T00:23:23.472Z,100229.00
2023-07-09T00:23:55.046Z,100224.63
2023-07-09T00:24:28.314Z,100221.38
2023-07-09T00:24:59.965Z,100217.31
2023-07-09T00:25:31.472Z,100222.50
2023-07-09T00:26:03.239Z,100221.38
2023-07-09T00:26:35.135Z,100221.06
2023-07-09T00:27:06.664Z,100235.09
2023-07-09T00:27:38.254Z,100221.88
2023-07-09T00:28:17.187Z,100223.81
2023-07-09T00:28:48.782Z,100228.69
2023-07-09T00:29:20.314Z,100226.25
2023-07-09T00:29:51.797Z,100225.75
2023-07-09T00:30:26.534Z,100223.31
2023-07-09T00:30:58.203Z,100227.97
2023-07-09T00:31:35.432Z,100222.81
2023-07-09T00:32:07.053Z,100224.41
2023-07-09T00:32:38.770Z,100222.19
2023-07-09T00:33:10.390Z,100225.53
2023-07-09T00:33:41.909Z,100224.94
2023-07-09T00:34:13.368Z,100226.88
2023-07-09T00:34:47.320Z,100224.84
2023-07-09T00:35:18.890Z,100223.00
2023-07-09T00:35:50.562Z,100222.50
2023-07-09T00:36:22.104Z,100220.38
2023-07-09T00:36:53.716Z,100221.38
2023-07-09T00:37:25.328Z,100220.56
2023-07-09T00:37:56.964Z,100215.41
2023-07-09T00:38:28.818Z,100223.09
2023-07-09T00:39:07.671Z,100223.91
2023-07-09T00:39:39.264Z,100219.75
2023-07-09T00:40:10.788Z,100223.00
2023-07-09T00:40:44.367Z,100222.00
2023-07-09T00:41:15.925Z,100217.00
2023-07-09T00:41:50.225Z,100218.03
2023-07-09T00:42:21.787Z,100215.91
2023-07-09T00:42:56.021Z,100216.72
2023-07-09T00:43:27.503Z,100219.16
2023-07-09T00:43:59.072Z,100222.41
2023-07-09T00:44:30.670Z,100212.25
2023-07-09T00:45:02.220Z,100213.47
2023-07-09T00:45:35.882Z,100216.50
2023-07-09T00:46:07.467Z,100215.09
2023-07-09T00:46:39.112Z,100210.22
2023-07-09T00:47:12.388Z,100215.69
2023-07-09T00:47:44.022Z,100215.69
2023-07-09T00:48:24.503Z,100214.28
2023-07-09T00:48:56.228Z,100216.19
2023-07-09T00:49:27.711Z,100218.63
2023-07-09T00:49:59.381Z,100215.91
2023-07-09T00:50:30.996Z,100214.19
2023-07-09T00:51:05.528Z,100216.50
2023-07-09T00:51:37.183Z,100211.31
2023-07-09T00:52:08.771Z,100214.66
2023-07-09T00:52:40.258Z,100219.31
2023-07-09T00:53:13.360Z,100210.28
2023-07-09T00:53:44.959Z,100208.88
2023-07-09T00:54:19.350Z,100213.22
2023-07-09T00:54:50.910Z,100215.75
2023-07-09T00:55:22.367Z,100215.47
2023-07-09T00:55:53.876Z,100212.81
2023-07-09T00:56:25.499Z,100210.06
2023-07-09T00:57:02.774Z,100215.47
2023-07-09T00:57:34.314Z,100216.56
2023-07-09T00:58:05.844Z,100211.84
2023-07-09T00:58:37.393Z,100224.13
2023-07-09T00:59:08.931Z,100215.69
2023-07-09T00:59:42.957Z,100216.50
2023-07-09T01:00:14.524Z,100222.25
2023-07-09T01:00:48.683Z,100215.47
2023-07-09T01:01:20.400Z,100219.53
2023-07-09T01:01:53.903Z,100214.88
2023-07-09T01:02:25.652Z,100215.75
2023-07-09T01:02:57.275Z,100217.09
2023-07-09T01:03:29.280Z,100213.03
2023-07-09T01:04:00.892Z,100206.22
2023-07-09T01:04:34.108Z,100213.63
2023-07-09T01:05:08.491Z,100213.03
2023-07-09T01:05:40.187Z,100214.44
2023-07-09T01:06:11.860Z,100212.81
2023-07-09T01:06:43.354Z,100215.03
2023-07-09T01:07:14.943Z,100211.78
2023-07-09T01:07:46.572Z,100210.97
2023-07-09T01:08:20.722Z,100212.59
2023-07-09T01:08:52.327Z,100212.09
2023-07-09T01:09:26.163Z,100216.78
2023-07-09T01:09:57.755Z,100218.69
2023-07-09T01:10:29.336Z,100212.09
2023-07-09T01:11:00.875Z,100210.78
2023-07-09T01:11:32.578Z,100212.59
2023-07-09T01:12:04.130Z,100215.66
2023-07-09T01:12:35.651Z,100215.44
2023-07-09T01:13:07.152Z,100217.88
2023-07-09T01:13:38.732Z,100221.13
2023-07-09T01:14:10.465Z,100219.19
2023-07-09T01:14:42.090Z,100217.78
2023-07-09T01:15:13.667Z,100218.38
2023-07-09T01:15:45.183Z,100216.78
2023-07-09T01:16:19.213Z,100223.34
2023-07-09T01:16:53.860Z,100216.78
2023-07-09T01:17:26.462Z,100225.50
2023-07-09T01:17:58.065Z,100212.19
2023-07-09T01:18:32.336Z,100216.25
2023-07-09T01:19:03.848Z,100225.78
2023-07-09T01:19:35.395Z,100220.09
2023-07-09T01:20:06.887Z,100221.72
2023-07-09T01:20:38.449Z,100224.97
2023-07-09T01:21:12.776Z,100220.09
2023-07-09T01:21:48.989Z,100220.41
2023-07-09T01:22:20.554Z,100225.06
2023-07-09T01:22:52.086Z,100228.13
2023-07-09T01:23:23.622Z,100221.53
2023-07-09T01:23:55.188Z,100220.72
2023-07-09T01:24:28.449Z,100228.13
2023-07-09T01:25:01.014Z,100219.09
2023-07-09T01:25:38.423Z,100220.72
2023-07-09T01:26:09.984Z,100222.63
2023-07-09T01:26:41.478Z,100223.44
2023-07-09T01:27:13.008Z,100222.03
2023-07-09T01:27:49.619Z,100220.41
2023-07-09T01:28:21.163Z,100223.97
2023-07-09T01:28:52.683Z,100219.00
2023-07-09T01:29:25.886Z,100220.09
2023-07-09T01:29:57.478Z,100220.09
2023-07-09T01:30:32.186Z,100217.06
2023-07-09T01:31:03.769Z,100213.81
2023-07-09T01:31:35.459Z,100211.91
2023-07-09T01:32:07.016Z,100214.63
2023-07-09T01:32:38.712Z,100221.72
2023-07-09T01:33:10.369Z,100222.03
2023-07-09T01:33:44.772Z,100223.97
2023-07-09T01:34:16.320Z,100218.69
2023-07-09T01:34:49.513Z,100220.63
2023-07-09T01:35:22.907Z,100221.22
2023-07-09T01:35:54.426Z,100214.13
2023-07-09T01:36:25.932Z,100218.78
2023-07-09T01:36:57.500Z,100218.47
2023-07-09T01:37:29.062Z,100223.44
2023-07-09T01:38:00.588Z,100219.50
2023-07-09T01:38:32.195Z,100220.72
2023-07-09T01:39:03.719Z,100215.84
2023-07-09T01:39:40.852Z,100215.22
2023-07-09T01:40:28.829Z,100221.72
2023-07-09T01:41:14.614Z,100220.72
2023-07-09T01:41:46.138Z,100212.41
2023-07-09T01:42:17.639Z,100213.72
2023-07-09T01:42:55.192Z,100218.47
2023-07-09T01:43:26.781Z,100216.06
2023-07-09T01:43:58.281Z,100220.09
2023-07-09T01:44:29.782Z,100218.78
2023-07-09T01:45:01.282Z,100216.84
2023-07-09T01:45:35.187Z,100220.94
2023-07-09T01:46:09.378Z,100220.72
2023-07-09T01:46:40.903Z,100219.91
2023-07-09T01:47:12.447Z,100221.53
2023-07-09T01:47:46.527Z,100216.66
2023-07-09T01:48:18.085Z,100222.13
2023-07-09T01:48:49.669Z,100221.00
2023-07-09T01:49:21.332Z,100215.03
2023-07-09T01:49:52.809Z,100220.50
2023-07-09T01:50:24.501Z,100219.31
2023-07-09T01:50:58.284Z,100219.91
2023-07-09T01:51:29.871Z,100219.38
2023-07-09T01:52:01.326Z,100222.13
2023-07-09T01:52:35.423Z,100220.00
2023-07-09T01:53:06.903Z,100219.47
2023-07-09T01:53:41.400Z,100221.41
2023-07-09T01:54:12.881Z,100220.81
2023-07-09T01:54:50.145Z,100224.34
2023-07-09T01:55:23.927Z,100225.97
2023-07-09T01:55:55.623Z,100221.63
2023-07-09T01:56:27.238Z,100220.19
2023-07-09T01:57:01.150Z,100225.69
2023-07-09T01:57:35.827Z,100221.53
2023-07-09T01:58:07.366Z,100223.16
2023-07-09T01:58:39.041Z,100229.44
2023-07-09T01:59:10.584Z,100225.38
2023-07-09T01:59:42.068Z,100222.34
2023-07-09T02:00:13.633Z,100225.28
2023-07-09T02:00:45.219Z,100223.44
2023-07-09T02:01:16.822Z,100227.00
2023-07-09T02:01:48.353Z,100225.06
2023-07-09T02:02:20.145Z,100219.91
2023-07-09T02:02:54.810Z,100223.44
2023-07-09T02:03:28.906Z,100222.13
2023-07-09T02:04:00.499Z,100227.09
2023-07-09T02:04:32.132Z,100223.25
2023-07-09T02:05:03.782Z,100225.16
2023-07-09T02:05:35.410Z,100221.31
2023-07-09T02:06:09.259Z,100225.78
2023-07-09T02:06:43.511Z,100226.28
2023-07-09T02:07:15.161Z,100217.56
2023-07-09T02:07:46.858Z,100220.19
2023-07-09T02:08:18.427Z,100219.69
2023-07-09T02:08:49.945Z,100217.56
2023-07-09T02:09:21.443Z,100223.03
2023-07-09T02:09:52.907Z,100212.38
2023-07-09T02:10:24.429Z,100217.56
2023-07-09T02:10:55.953Z,100218.16
2023-07-09T02:11:27.472Z,100223.63
2023-07-09T02:11:58.988Z,100216.06
2023-07-09T02:12:30.573Z,100215.41
2023-07-09T02:13:05.099Z,100217.25
2023-07-09T02:13:36.869Z,100219.31
2023-07-09T02:14:08.483Z,100222.53
2023-07-09T02:14:42.578Z,100219.91
2023-07-09T02:15:14.119Z,100212.19
2023-07-09T02:15:45.716Z,100214.00
2023-07-09T02:16:17.250Z,100221.41
2023-07-09T02:16:48.922Z,100220.41
2023-07-09T02:17:22.760Z,100212.69
2023-07-09T02:17:54.399Z,100209.13
2023-07-09T02:18:26.075Z,100215.41
2023-07-09T02:18:57.660Z,100215.63
2023-07-09T02:19:29.212Z,100215.41
2023-07-09T02:20:00.727Z,100214.31
2023-07-09T02:20:32.291Z,100217.69
2023-07-09T02:21:05.658Z,100209.13
2023-07-09T02:21:37.131Z,100209.75
2023-07-09T02:22:11.582Z,100216.56
2023-07-09T02:22:43.144Z,100214.59
2023-07-09T02:23:14.672Z,100216.56
2023-07-09T02:23:46.263Z,100215.63
2023-07-09T02:24:18.853Z,100213.00
2023-07-09T02:24:50.553Z,100215.53
2023-07-09T02:25:22.151Z,100206.91
2023-07-09T02:25:53.650Z,100210.66
2023-07-09T02:26:31.425Z,100214.81
2023-07-09T02:27:02.997Z,100213.81
2023-07-09T02:27:34.586Z,100210.56
2023-07-09T02:28:06.168Z,100215.75
2023-07-09T02:28:40.714Z,100209.13
2023-07-09T02:29:14.009Z,100213.50
2023-07-09T02:29:45.527Z,100210.44
2023-07-09T02:30:17.059Z,100215.94
2023-07-09T02:30:50.560Z,100215.41
2023-07-09T02:31:22.222Z,100214.53
2023-07-09T02:31:56.751Z,100225.78
2023-07-09T02:32:31.031Z,100220.91
2023-07-09T02:33:02.713Z,100220.59
2023-07-09T02:33:36.024Z,100221.53
2023-07-09T02:34:07.724Z,100218.78
2023-07-09T02:34:39.266Z,100220.41
2023-07-09T02:35:10.810Z,100219.31
2023-07-09T02:35:46.437Z,100214.94
2023-07-09T02:36:18.079Z,100217.34
2023-07-09T02:36:49.633Z,100219.31
2023-07-09T02:37:21.200Z,100217.69
2023-07-09T02:37:52.745Z,100223.03
2023-07-09T02:38:24.252Z,100223.34
2023-07-09T02:38:55.831Z,100225.47
2023-07-09T02:39:27.419Z,100227.69
2023-07-09T02:40:00.342Z,100225.16
2023-07-09T02:40:34.796Z,100221.31
2023-07-09T02:41:06.461Z,100224.06
2023-07-09T02:41:38.063Z,100227.00
2023-07-09T02:42:09.561Z,100228.50
2023-07-09T02:42:41.078Z,100232.28
2023-07-09T02:43:19.127Z,100228.50
2023-07-09T02:43:50.643Z,100228.50
2023-07-09T02:44:22.162Z,100224.78
2023-07-09T02:44:57.424Z,100226.38
2023-07-09T02:45:29.070Z,100224.78
2023-07-09T02:46:00.913Z,100229.63
2023-07-09T02:46:32.668Z,100230.75
2023-07-09T02:47:04.154Z,100225.56
2023-07-09T02:47:38.233Z,100226.59
2023-07-09T02:48:09.898Z,100225.78
2023-07-09T02:48:41.485Z,100228.72
2023-07-09T02:49:12.990Z,100229.22
2023-07-09T02:49:44.640Z,100224.56
2023-07-09T02:50:16.140Z,100230.66
2023-07-09T02:50:47.670Z,100232.06
2023-07-09T02:51:19.165Z,100227.91
2023-07-09T02:51:50.730Z,100233.09
2023-07-09T02:52:22.266Z,100225.16
2023-07-09T02:52:56.963Z,100230.66
2023-07-09T02:53:30.338Z,100231.25
2023-07-09T02:54:01.888Z,100235.09
2023-07-09T02:54:41.985Z,100229.03
2023-07-09T02:55:13.617Z,100229.03
2023-07-09T02:55:45.199Z,100235.09
2023-07-09T02:56:19.202Z,100230.13
2023-07-09T02:56:50.953Z,100230.44
2023-07-09T02:57:25.372Z,100234.00
2023-07-09T02:57:57.029Z,100231.25
2023-07-09T02:58:38.152Z,100235.09
2023-07-09T02:59:16.637Z,100231.75
2023-07-09T02:59:48.234Z,100224.34
2023-07-09T03:00:22.848Z,100232.28
2023-07-09T03:00:54.501Z,100238.34
2023-07-09T03:01:31.950Z,100234.50
2023-07-09T03:02:03.756Z,100232.78
2023-07-09T03:02:37.921Z,100232.28
2023-07-09T03:03:09.621Z,100233.28
2023-07-09T03:03:43.915Z,100224.56
2023-07-09T03:04:16.710Z,100230.84
2023-07-09T03:04:51.201Z,100226.50
2023-07-09T03:05:22.730Z,100225.69
2023-07-09T03:06:06.215Z,100233.00
2023-07-09T03:06:38.001Z,100232.78
2023-07-09T03:07:09.517Z,100230.56
2023-07-09T03:07:41.025Z,100234.91
2023-07-09T03:08:14.430Z,100226.41
2023-07-09T03:08:53.702Z,100232.28
2023-07-09T03:09:37.196Z,100232.56
2023-07-09T03:10:08.808Z,100239.38
2023-07-09T03:10:45.116Z,100235.00
2023-07-09T03:11:21.819Z,100234.91
2023-07-09T03:11:53.385Z,100233.09
2023-07-09T03:12:27.961Z,100235.53
2023-07-09T03:13:02.476Z,100238.56
2023-07-09T03:13:34.187Z,100240.19
2023-07-09T03:14:05.767Z,100238.25
2023-07-09T03:14:37.460Z,100244.84
2023-07-09T03:15:08.972Z,100243.75
2023-07-09T03:15:40.570Z,100251.06
2023-07-09T03:16:12.079Z,100240.41
2023-07-09T03:16:43.702Z,100237.97
2023-07-09T03:17:18.458Z,100245.56
2023-07-09T03:17:50.143Z,100244.75
2023-07-09T03:18:24.436Z,100242.31
2023-07-09T03:18:56.029Z,100240.19
2023-07-09T03:19:27.568Z,100250.44
2023-07-09T03:20:00.308Z,100251.97
2023-07-09T03:20:31.800Z,100250.53
2023-07-09T03:21:03.328Z,100253.59
2023-07-09T03:21:34.844Z,100246.38
2023-07-09T03:22:06.495Z,100246.19
2023-07-09T03:22:38.021Z,100258.56
2023-07-09T03:23:11.260Z,100251.44
2023-07-09T03:23:42.756Z,100257.94
2023-07-09T03:24:14.272Z,100251.97
2023-07-09T03:24:45.812Z,100255.31
2023-07-09T03:25:17.319Z,100255.00
2023-07-09T03:25:48.911Z,100256.13
2023-07-09T03:26:22.261Z,100256.72
2023-07-09T03:26:56.598Z,100255.91
2023-07-09T03:27:31.049Z,100257.81
2023-07-09T03:28:02.688Z,100259.75
2023-07-09T03:28:36.374Z,100263.31
2023-07-09T03:29:11.877Z,100260.88
2023-07-09T03:29:43.557Z,100260.38
2023-07-09T03:30:23.673Z,100261.16
2023-07-09T03:31:00.850Z,100256.63
2023-07-09T03:31:32.348Z,100268.59
2023-07-09T03:32:06.709Z,100254.69
2023-07-09T03:32:38.421Z,100267.28
2023-07-09T03:33:10.007Z,100265.13
2023-07-09T03:33:41.553Z,100261.88
2023-07-09T03:34:13.111Z,100260.47
2023-07-09T03:34:44.599Z,100277.41
2023-07-09T03:35:18.583Z,100266.97
2023-07-09T03:35:53.169Z,100263.72
2023-07-09T03:36:27.641Z,100266.75
2023-07-09T03:37:01.870Z,100271.34
2023-07-09T03:37:35.791Z,100267.56
2023-07-09T03:38:08.906Z,100272.53
2023-07-09T03:38:40.461Z,100263.72
2023-07-09T03:39:12.004Z,100266.75
2023-07-09T03:39:43.527Z,100267.56
2023-07-09T03:40:15.053Z,100266.25
2023-07-09T03:40:46.598Z,100268.19
2023-07-09T03:41:21.171Z,100271.13
2023-07-09T03:41:52.679Z,100268.09
2023-07-09T03:42:24.164Z,100269.22
2023-07-09T03:42:55.768Z,100270.19
2023-07-09T03:43:27.275Z,100270.19
2023-07-09T03:44:05.570Z,100271.34
2023-07-09T03:44:37.173Z,100270.72
2023-07-09T03:45:09.780Z,100266.97
2023-07-09T03:45:46.837Z,100267.78
2023-07-09T03:46:18.481Z,100274.69
2023-07-09T03:46:59.163Z,100264.72
2023-07-09T03:47:30.960Z,100273.28
2023-07-09T03:48:02.661Z,100278.94
2023-07-09T03:48:34.487Z,100268.28
2023-07-09T03:49:06.116Z,100269.72
2023-07-09T03:49:40.737Z,100264.72
2023-07-09T03:50:12.566Z,100271.66
2023-07-09T03:50:44.135Z,100271.66
2023-07-09T03:51:17.114Z,100271.34
2023-07-09T03:51:48.623Z,100265.66
2023-07-09T03:52:20.280Z,100268.91
2023-07-09T03:52:51.989Z,100271.94
2023-07-09T03:53:23.507Z,100274.88
2023-07-09T03:53:55.126Z,100269.50
2023-07-09T03:54:27.716Z,100269.50
2023-07-09T03:54:59.479Z,100273.56
2023-07-09T03:55:33.366Z,100271.66
2023-07-09T03:56:07.951Z,100276.59
2023-07-09T03:56:39.576Z,100265.66
2023-07-09T03:57:11.513Z,100273.88
2023-07-09T03:57:42.995Z,100266.47
2023-07-09T03:58:14.540Z,100266.47
2023-07-09T03:58:48.786Z,100264.84
2023-07-09T03:59:20.378Z,100264.84
2023-07-09T03:59:54.764Z,100271.94
2023-07-09T04:00:26.373Z,100265.94
2023-07-09T04:01:04.123Z,100271.44
2023-07-09T04:01:37.261Z,100265.94
2023-07-09T04:02:11.647Z,100270.00
2023-07-09T04:02:43.190Z,100268.91
2023-07-09T04:03:17.617Z,100267.56
2023-07-09T04:03:54.969Z,100275.28
2023-07-09T04:04:29.542Z,100273.13
2023-07-09T04:05:04.100Z,100269.81
2023-07-09T04:05:38.365Z,100266.34
2023-07-09T04:06:12.888Z,100269.06
2023-07-09T04:06:44.422Z,100269.38
2023-07-09T04:07:24.718Z,100275.88
2023-07-09T04:07:56.299Z,100269.06
2023-07-09T04:08:27.863Z,100269.88
2023-07-09T04:09:01.205Z,100269.88
2023-07-09T04:09:32.719Z,100268.69
2023-07-09T04:10:04.310Z,100269.00
2023-07-09T04:10:38.520Z,100267.38
2023-07-09T04:11:14.156Z,100269.28
2023-07-09T04:11:45.653Z,100269.38
2023-07-09T04:12:17.325Z,100270.19
2023-07-09T04:12:48.877Z,100275.38
2023-07-09T04:13:23.189Z,100270.09
2023-07-09T04:13:57.474Z,100270.19
2023-07-09T04:14:29.142Z,100271.00
2023-07-09T04:15:02.347Z,100272.03
2023-07-09T04:15:33.978Z,100275.28
2023-07-09T04:16:05.778Z,100265.44
2023-07-09T04:16:37.525Z,100272.34
2023-07-09T04:17:09.155Z,100273.66
2023-07-09T04:17:40.745Z,100273.44
2023-07-09T04:18:12.386Z,100269.59
2023-07-09T04:18:43.902Z,100274.47
2023-07-09T04:19:15.428Z,100273.06
2023-07-09T04:19:46.947Z,100269.22
2023-07-09T04:20:18.446Z,100272.25
2023-07-09T04:20:49.946Z,100265.44
2023-07-09T04:21:28.878Z,100270.00
2023-07-09T04:22:00.496Z,100272.53
2023-07-09T04:22:32.050Z,100276.69
2023-07-09T04:23:03.582Z,100273.34
2023-07-09T04:23:36.977Z,100275.28
2023-07-09T04:24:11.279Z,100270.09
2023-07-09T04:24:45.483Z,100275.28
2023-07-09T04:25:17.037Z,100268.78
2023-07-09T04:25:48.547Z,100266.84
2023-07-09T04:26:20.124Z,100270.91
2023-07-09T04:26:51.658Z,100273.44
2023-07-09T04:27:24.896Z,100278.09
2023-07-09T04:27:56.437Z,100272.03
2023-07-09T04:28:29.336Z,100274.47
2023-07-09T04:29:06.035Z,100275.06
2023-07-09T04:29:37.626Z,100278.09
2023-07-09T04:30:09.282Z,100275.38
2023-07-09T04:30:40.846Z,100277.88
2023-07-09T04:31:14.983Z,100274.84
2023-07-09T04:31:49.419Z,100273.53
2023-07-09T04:32:27.031Z,100273.00
2023-07-09T04:32:58.814Z,100280.53
2023-07-09T04:33:30.489Z,100272.03
2023-07-09T04:34:02.135Z,100275.88
2023-07-09T04:34:33.738Z,100276.09
2023-07-09T04:35:05.349Z,100277.72
2023-07-09T04:35:38.704Z,100273.88
2023-07-09T04:36:13.092Z,100280.66
2023-07-09T04:36:44.718Z,100278.03
2023-07-09T04:37:16.261Z,100274.97
2023-07-09T04:37:47.907Z,100274.78
2023-07-09T04:38:19.493Z,100277.81
2023-07-09T04:38:51.087Z,100277.28
2023-07-09T04:39:26.201Z,100280.03
2023-07-09T04:39:57.743Z,100280.31
2023-07-09T04:40:31.758Z,100284.69
2023-07-09T04:41:03.289Z,100285.81
2023-07-09T04:41:34.847Z,100284.31
2023-07-09T04:42:06.434Z,100280.66
2023-07-09T04:42:40.618Z,100280.66
2023-07-09T04:43:12.190Z,100282.09
2023-07-09T04:43:43.769Z,100284.81
2023-07-09T04:44:15.349Z,100283.41
2023-07-09T04:44:46.872Z,100283.72
2023-07-09T04:45:18.374Z,100278.53
2023-07-09T04:45:49.967Z,100274.16
2023-07-09T04:46:21.754Z,100278.53
2023-07-09T04:46:56.348Z,100290.59
2023-07-09T04:47:27.910Z,100275.88
2023-07-09T04:47:59.549Z,100286.31
2023-07-09T04:48:31.127Z,100285.41
2023-07-09T04:49:02.693Z,100278.31
2023-07-09T04:49:34.317Z,100282.47
2023-07-09T04:50:05.811Z,100282.69
2023-07-09T04:50:37.595Z,100283.78
2023-07-09T04:51:09.209Z,100280.25
2023-07-09T04:51:40.709Z,100283.19
2023-07-09T04:52:12.294Z,100282.97
2023-07-09T04:52:43.771Z,100292.00
2023-07-09T04:53:18.160Z,100285.41
2023-07-09T04:53:50.646Z,100285.13
2023-07-09T04:54:22.189Z,100284.59
2023-07-09T04:54:56.802Z,100287.88
2023-07-09T04:55:28.423Z,100288.47
2023-07-09T04:56:00.054Z,100288.47
2023-07-09T04:56:34.645Z,100285.41
2023-07-09T04:57:06.182Z,100282.91
2023-07-09T04:57:39.584Z,100283.19
2023-07-09T04:58:11.153Z,100281.88
2023-07-09T04:58:42.726Z,100289.28
2023-07-09T04:59:14.213Z,100282.97
2023-07-09T04:59:45.762Z,100284.41
2023-07-09T05:00:17.378Z,100289.78
2023-07-09T05:00:51.783Z,100280.25
2023-07-09T05:01:23.443Z,100282.59
2023-07-09T05:01:57.976Z,100281.28
2023-07-09T05:02:29.507Z,100284.59
2023-07-09T05:03:01.268Z,100280.75
2023-07-09T05:03:34.080Z,100287.25
2023-07-09T05:04:05.771Z,100291.94
2023-07-09T05:04:37.337Z,100292.22
2023-07-09T05:05:08.863Z,100289.88
2023-07-09T05:05:45.063Z,100289.56
2023-07-09T05:06:19.307Z,100286.84
2023-07-09T05:06:50.858Z,100291.41
2023-07-09T05:07:22.394Z,100288.38
2023-07-09T05:07:56.647Z,100290.09
2023-07-09T05:08:28.198Z,100292.31
2023-07-09T05:08:59.724Z,100292.31
2023-07-09T05:09:31.265Z,100294.44
2023-07-09T05:10:02.742Z,100295.88
2023-07-09T05:10:34.281Z,100292.00
2023-07-09T05:11:08.755Z,100297.41
2023-07-09T05:11:40.350Z,100293.34
2023-07-09T05:12:11.966Z,100297.41
2023-07-09T05:12:43.525Z,100294.53
2023-07-09T05:13:15.095Z,100292.53
2023-07-09T05:13:50.207Z,100304.28
2023-07-09T05:14:22.790Z,100301.56
2023-07-09T05:14:54.430Z,100304.00
2023-07-09T05:15:25.925Z,100299.94
2023-07-09T05:15:57.641Z,100300.97
2023-07-09T05:16:29.690Z,100293.84
2023-07-09T05:17:01.342Z,100295.47
2023-07-09T05:17:33.074Z,100301.47
2023-07-09T05:18:04.692Z,100299.03
2023-07-09T05:18:36.245Z,100301.47
2023-07-09T05:19:07.764Z,100293.25
2023-07-09T05:19:39.373Z,100296.00
2023-07-09T05:20:10.892Z,100293.25
2023-07-09T05:20:42.414Z,100289.69
2023-07-09T05:21:13.925Z,100294.38
2023-07-09T05:21:50.951Z,100296.00
2023-07-09T05:22:22.498Z,100292.75
2023-07-09T05:22:54.110Z,100291.63
2023-07-09T05:23:25.625Z,100292.91
2023-07-09T05:23:57.264Z,100291.31
2023-07-09T05:24:29.339Z,100299.34
2023-07-09T05:25:01.925Z,100294.03
2023-07-09T05:25:33.488Z,100289.88
2023-07-09T05:26:05.249Z,100293.34
2023-07-09T05:26:37.106Z,100291.63
2023-07-09T05:27:09.478Z,100296.00
2023-07-09T05:27:41.123Z,100281.97
2023-07-09T05:28:15.707Z,100292.44
2023-07-09T05:28:47.306Z,100291.00
2023-07-09T05:29:21.860Z,100289.50
2023-07-09T05:29:56.514Z,100290.38
2023-07-09T05:30:28.065Z,100290.97
2023-07-09T05:30:59.616Z,100285.22
2023-07-09T05:31:31.437Z,100289.06
2023-07-09T05:32:03.034Z,100288.53
2023-07-09T05:32:34.725Z,100291.88
2023-07-09T05:33:06.336Z,100288.84
2023-07-09T05:33:37.938Z,100288.53
2023-07-09T05:34:09.470Z,100287.34
2023-07-09T05:34:41.152Z,100285.50
2023-07-09T05:35:14.021Z,100286.31
2023-07-09T05:35:45.569Z,100292.53
2023-07-09T05:36:17.140Z,100289.78
2023-07-09T05:36:51.527Z,100289.28
2023-07-09T05:37:25.861Z,100288.38
2023-07-09T05:37:57.515Z,100287.88
2023-07-09T05:38:29.010Z,100293.03
2023-07-09T05:39:00.515Z,100296.38
2023-07-09T05:39:32.014Z,100292.81
2023-07-09T05:40:03.598Z,100294.53
2023-07-09T05:40:35.169Z,100290.69
2023-07-09T05:41:09.532Z,100292.00
2023-07-09T05:41:41.139Z,100295.06
2023-07-09T05:42:12.667Z,100280.53
2023-07-09T05:42:46.356Z,100285.72
2023-07-09T05:43:17.918Z,100287.88
2023-07-09T05:43:49.463Z,100290.38
2023-07-09T05:44:20.990Z,100288.88
2023-07-09T05:44:55.283Z,100291.13
2023-07-09T05:45:26.851Z,100290.09
2023-07-09T05:45:58.414Z,100297.19
2023-07-09T05:46:33.108Z,100303.19
2023-07-09T05:47:05.916Z,100299.13
2023-07-09T05:47:39.310Z,100299.63
2023-07-09T05:48:19.885Z,100295.56
2023-07-09T05:48:51.453Z,100301.25
2023-07-09T05:49:22.995Z,100300.66
2023-07-09T05:49:54.497Z,100298.91
2023-07-09T05:50:26.001Z,100296.69
2023-07-09T05:50:57.510Z,100298.41
2023-07-09T05:51:31.370Z,100303.41
2023-07-09T05:52:02.877Z,100300.97
2023-07-09T05:52:34.539Z,100294.38
2023-07-09T05:53:06.188Z,100296.59
2023-07-09T05:53:39.678Z,100292.75
2023-07-09T05:54:11.270Z,100299.84
2023-07-09T05:54:42.773Z,100300.66
2023-07-09T05:55:17.271Z,100298.41
2023-07-09T05:55:48.778Z,100301.47
2023-07-09T05:56:22.144Z,100301.47
2023-07-09T05:56:53.685Z,100299.84
2023-07-09T05:57:25.213Z,100301.47
2023-07-09T05:57:56.801Z,100296.28
2023-07-09T05:58:31.283Z,100295.78
2023-07-09T05:59:02.918Z,100299.03
2023-07-09T05:59:34.471Z,100296.06
2023-07-09T06:00:06.109Z,100302.06
2023-07-09T06:00:37.604Z,100302.06
2023-07-09T06:01:09.254Z,100301.78
2023-07-09T06:01:43.661Z,100298.81
2023-07-09T06:02:15.204Z,100303.06
2023-07-09T06:02:48.053Z,100300.03
2023-07-09T06:03:20.051Z,100301.47
2023-07-09T06:03:52.125Z,100300.97
2023-07-09T06:04:56.280Z,100302.88
2023-07-09T06:05:27.496Z,100309.34
2023-07-09T06:05:58.731Z,100307.13
2023-07-09T06:06:29.966Z,100300.03
2023-07-09T06:07:01.178Z,100302.47
2023-07-09T06:07:32.397Z,100304.41
2023-07-09T06:08:03.667Z,100304.69
2023-07-09T06:08:35.093Z,100299.22
2023-07-09T06:09:06.515Z,100297.91
2023-07-09T06:09:38.100Z,100305.81
2023-07-09T06:10:09.550Z,100307.13
2023-07-09T06:10:41.081Z,100302.97
2023-07-09T06:11:12.560Z,100308.16
2023-07-09T06:11:44.027Z,100308.97
2023-07-09T06:12:15.466Z,100306.53